createdAt,value
2023-04-25T00:02:20.655Z,99407.23
2023-04-25T00:04:53.334Z,99404.70
2023-04-25T00:07:27.270Z,99411.23
2023-04-25T00:09:59.279Z,99410.38
2023-04-25T00:12:31.247Z,99409.32
2023-04-25T00:15:03.673Z,99408.09
2023-04-25T00:17:39.583Z,99405.23
2023-04-25T00:20:14.286Z,99407.98
2023-04-25T00:22:46.353Z,99404.44
2023-04-25T00:25:18.328Z,99409.98
2023-04-25T00:27:50.372Z,99411.41
2023-04-25T00:30:22.210Z,99417.63
2023-04-25T00:32:54.347Z,99415.70
2023-04-25T00:35:26.489Z,99416.23
2023-04-25T00:37:58.927Z,99421.22
2023-04-25T00:40:31.178Z,99418.94
2023-04-25T00:43:03.070Z,99419.80
2023-04-25T00:45:40.021Z,99418.85
2023-04-25T00:48:12.190Z,99421.30
2023-04-25T00:50:44.960Z,99423.77
2023-04-25T00:53:16.187Z,99420.30
2023-04-25T00:55:48.096Z,99415.65
2023-04-25T00:58:20.239Z,99417.61
2023-04-25T01:00:53.913Z,99425.79
2023-04-25T01:03:27.474Z,99422.55
2023-04-25T01:05:59.694Z,99424.73
2023-04-25T01:08:32.015Z,99424.70
2023-04-25T01:11:05.567Z,99426.84
2023-04-25T01:13:37.950Z,99424.23
2023-04-25T01:16:10.402Z,99420.45
2023-04-25T01:18:44.580Z,99422.65
2023-04-25T01:21:16.793Z,99424.23
2023-04-25T01:23:52.661Z,99424.45
2023-04-25T01:26:26.909Z,99425.02
2023-04-25T01:29:00.092Z,99422.18
2023-04-25T01:31:34.278Z,99423.71
2023-04-25T01:34:06.149Z,99428.98
2023-04-25T01:36:39.578Z,99431.32
2023-04-25T01:39:12.032Z,99430.90
2023-04-25T01:41:44.477Z,99431.35
2023-04-25T01:44:17.496Z,99432.64
2023-04-25T01:46:47.936Z,99430.70
2023-04-25T01:49:20.174Z,99433.52
2023-04-25T01:51:52.128Z,99432.25
2023-04-25T01:54:24.480Z,99430.00
2023-04-25T01:56:59.103Z,99430.76
2023-04-25T01:59:31.098Z,99430.67
2023-04-25T02:02:12.558Z,99433.04
2023-04-25T02:04:45.110Z,99424.15
2023-04-25T02:07:18.264Z,99434.52
2023-04-25T02:09:55.032Z,99431.89
2023-04-25T02:12:28.842Z,99435.52
2023-04-25T02:15:00.843Z,99440.42
2023-04-25T02:17:42.805Z,99436.28
2023-04-25T02:20:17.395Z,99443.95
2023-04-25T02:22:50.084Z,99443.15
2023-04-25T02:25:21.808Z,99445.04
2023-04-25T02:27:53.701Z,99442.57
2023-04-25T02:30:25.931Z,99443.23
2023-04-25T02:32:58.073Z,99444.44
2023-04-25T02:35:30.215Z,99443.00
2023-04-25T02:38:02.159Z,99444.16
2023-04-25T02:40:34.136Z,99444.67
2023-04-25T02:43:05.983Z,99440.52
2023-04-25T02:45:38.739Z,99441.61
2023-04-25T02:48:09.465Z,99437.61
2023-04-25T02:50:41.287Z,99437.05
2023-04-25T02:53:13.408Z,99438.04
2023-04-25T02:55:50.423Z,99436.76
2023-04-25T02:58:22.439Z,99436.07
2023-04-25T03:00:56.850Z,99430.41
2023-04-25T03:03:28.953Z,99433.11
2023-04-25T03:06:00.840Z,99429.20
2023-04-25T03:08:35.539Z,99428.39
2023-04-25T03:11:07.704Z,99426.30
2023-04-25T03:13:40.649Z,99420.35
2023-04-25T03:16:13.766Z,99421.98
2023-04-25T03:18:45.750Z,99425.64
2023-04-25T03:21:18.316Z,99427.16
2023-04-25T03:23:50.282Z,99427.98
2023-04-25T03:26:22.572Z,99424.97
2023-04-25T03:28:54.386Z,99424.66
2023-04-25T03:31:26.987Z,99421.54
2023-04-25T03:33:59.043Z,99417.02
2023-04-25T03:36:31.556Z,99417.86
2023-04-25T03:39:03.642Z,99417.96
2023-04-25T03:41:35.900Z,99421.72
2023-04-25T03:44:12.089Z,99420.98
2023-04-25T03:46:44.925Z,99423.89
2023-04-25T03:49:19.578Z,99422.27
2023-04-25T03:52:02.674Z,99428.27
2023-04-25T03:54:39.107Z,99434.84
2023-04-25T03:57:23.759Z,99436.56
2023-04-25T03:59:55.984Z,99436.31
2023-04-25T04:02:28.466Z,99434.69
2023-04-25T04:05:01.195Z,99437.35
2023-04-25T04:07:33.981Z,99437.52
2023-04-25T04:10:09.025Z,99437.27
2023-04-25T04:12:43.168Z,99437.02
2023-04-25T04:15:16.116Z,99440.33
2023-04-25T04:17:52.041Z,99443.48
2023-04-25T04:20:24.355Z,99445.96
2023-04-25T04:22:56.641Z,99449.87
2023-04-25T04:25:31.362Z,99446.30
2023-04-25T04:28:14.338Z,99450.93
2023-04-25T04:30:54.873Z,99454.32
2023-04-25T04:33:26.864Z,99462.13
2023-04-25T04:36:05.321Z,99456.21
2023-04-25T04:38:39.161Z,99462.33
2023-04-25T04:41:13.686Z,99464.88
2023-04-25T04:43:57.088Z,99464.81
2023-04-25T04:46:41.948Z,99467.65
2023-04-25T04:49:32.699Z,99469.72
2023-04-25T04:52:24.867Z,99469.37
2023-04-25T04:55:19.704Z,99467.70
2023-04-25T04:58:09.174Z,99473.32
2023-04-25T05:00:59.710Z,99467.38
2023-04-25T05:03:55.233Z,99465.77
2023-04-25T05:06:40.502Z,99465.92
2023-04-25T05:09:21.263Z,99464.77
2023-04-25T05:12:09.056Z,99467.39
2023-04-25T05:15:13.672Z,99465.42
2023-04-25T05:18:05.600Z,99470.46
2023-04-25T05:20:48.004Z,99472.67
2023-04-25T05:23:49.404Z,99475.89
2023-04-25T05:26:42.948Z,99474.90
2023-04-25T05:29:29.044Z,99467.63
2023-04-25T05:32:13.943Z,99474.23
2023-04-25T05:34:46.648Z,99473.61
2023-04-25T05:37:28.066Z,99482.30
2023-04-25T05:40:17.272Z,99482.86
2023-04-25T05:43:08.204Z,99483.02
2023-04-25T05:45:55.258Z,99482.70
2023-04-25T05:48:58.101Z,99474.73
2023-04-25T05:51:56.283Z,99473.89
2023-04-25T05:54:54.538Z,99478.66
2023-04-25T05:57:28.563Z,99488.80
2023-04-25T06:00:01.927Z,99495.09
2023-04-25T06:02:46.430Z,99492.51
2023-04-25T06:05:19.952Z,99496.48
2023-04-25T06:07:52.495Z,99487.96
2023-04-25T06:10:24.769Z,99488.68
2023-04-25T06:12:56.578Z,99495.08
2023-04-25T06:15:29.113Z,99490.02
2023-04-25T06:18:01.569Z,99495.48
2023-04-25T06:20:33.394Z,99488.20
2023-04-25T06:23:05.977Z,99488.25
2023-04-25T06:26:07.074Z,99491.64
2023-04-25T06:28:40.130Z,99487.14
2023-04-25T06:31:12.009Z,99490.81
2023-04-25T06:33:44.711Z,99486.38
2023-04-25T06:36:16.661Z,99485.59
2023-04-25T06:38:49.263Z,99488.55
2023-04-25T06:41:21.837Z,99488.16
2023-04-25T06:43:54.003Z,99481.33
2023-04-25T06:46:48.731Z,99482.79
2023-04-25T06:49:20.660Z,99483.35
2023-04-25T06:51:52.633Z,99480.98
2023-04-25T06:54:25.816Z,99483.33
2023-04-25T06:57:05.377Z,99482.69
2023-04-25T06:59:36.033Z,99481.03
2023-04-25T07:02:08.208Z,99487.85
2023-04-25T07:04:40.401Z,99480.61
2023-04-25T07:07:12.350Z,99484.73
2023-04-25T07:09:51.042Z,99485.80
2023-04-25T07:12:23.024Z,99482.62
2023-04-25T07:14:54.906Z,99482.20
2023-04-25T07:17:27.305Z,99486.10
2023-04-25T07:19:59.157Z,99478.73
2023-04-25T07:22:32.284Z,99485.29
2023-04-25T07:25:07.139Z,99489.70
2023-04-25T07:27:40.388Z,99495.05
2023-04-25T07:30:24.407Z,99495.92
2023-04-25T07:32:56.612Z,99498.32
2023-04-25T07:35:28.602Z,99495.35
2023-04-25T07:38:01.174Z,99495.35
2023-04-25T07:40:33.749Z,99500.75
2023-04-25T07:43:09.237Z,99497.80
2023-04-25T07:46:00.064Z,99505.69
2023-04-25T07:48:34.127Z,99491.95
2023-04-25T07:51:05.805Z,99495.61
2023-04-25T07:53:38.564Z,99493.86
2023-04-25T07:56:13.557Z,99494.87
2023-04-25T07:58:46.939Z,99495.84
2023-04-25T08:01:22.575Z,99496.23
2023-04-25T08:04:01.669Z,99501.35
2023-04-25T08:06:52.202Z,99502.67
2023-04-25T08:09:28.768Z,99497.51
2023-04-25T08:11:59.650Z,99500.75
2023-04-25T08:14:37.155Z,99501.45
2023-04-25T08:17:10.234Z,99502.69
2023-04-25T08:19:46.619Z,99503.88
2023-04-25T08:22:25.541Z,99506.80
2023-04-25T08:25:03.721Z,99509.66
2023-04-25T08:27:35.810Z,99508.89
2023-04-25T08:30:10.310Z,99511.83
2023-04-25T08:32:42.820Z,99511.80
2023-04-25T08:35:44.153Z,99515.90
2023-04-25T08:38:16.768Z,99513.02
2023-04-25T08:40:53.300Z,99511.30
2023-04-25T08:43:27.041Z,99512.14
2023-04-25T08:46:00.734Z,99513.46
2023-04-25T08:48:42.644Z,99518.95
2023-04-25T08:51:19.056Z,99516.68
2023-04-25T08:53:57.877Z,99525.81
2023-04-25T08:56:36.032Z,99519.90
2023-04-25T08:59:09.056Z,99522.39
2023-04-25T09:01:41.723Z,99521.65
2023-04-25T09:04:15.860Z,99532.25
2023-04-25T09:06:47.921Z,99527.63
2023-04-25T09:09:20.522Z,99529.83
2023-04-25T09:11:52.789Z,99533.36
2023-04-25T09:14:27.064Z,99543.05
2023-04-25T09:17:08.839Z,99543.97
2023-04-25T09:20:09.916Z,99545.37
2023-04-25T09:22:42.287Z,99545.89
2023-04-25T09:25:16.160Z,99547.30
2023-04-25T09:27:56.825Z,99549.20
2023-04-25T09:30:35.689Z,99548.95
2023-04-25T09:33:14.671Z,99547.68
2023-04-25T09:35:56.091Z,99551.68
2023-04-25T09:38:32.548Z,99550.46
2023-04-25T09:41:13.162Z,99550.61
2023-04-25T09:43:51.779Z,99552.47
2023-04-25T09:46:27.327Z,99556.77
2023-04-25T09:49:01.049Z,99561.70
2023-04-25T09:51:39.870Z,99558.09
2023-04-25T09:54:12.316Z,99559.39
2023-04-25T09:56:53.547Z,99562.23
2023-04-25T09:59:27.033Z,99563.58
2023-04-25T10:01:59.947Z,99558.98
2023-04-25T10:04:39.631Z,99563.09
2023-04-25T10:07:34.369Z,99561.69
2023-04-25T10:10:08.112Z,99568.10
2023-04-25T10:12:41.435Z,99569.52
2023-04-25T10:15:16.188Z,99568.01
2023-04-25T10:17:48.754Z,99575.59
2023-04-25T10:20:20.795Z,99574.35
2023-04-25T10:22:57.435Z,99573.45
2023-04-25T10:25:29.431Z,99572.12
2023-04-25T10:28:04.549Z,99573.13
2023-04-25T10:30:36.934Z,99569.31
2023-04-25T10:33:20.924Z,99572.73
2023-04-25T10:35:52.841Z,99568.45
2023-04-25T10:38:24.672Z,99567.86
2023-04-25T10:41:09.383Z,99570.20
2023-04-25T10:43:43.514Z,99572.77
2023-04-25T10:46:24.690Z,99576.21
2023-04-25T10:48:57.545Z,99570.29
2023-04-25T10:51:39.972Z,99573.31
2023-04-25T10:54:26.626Z,99574.36
2023-04-25T10:57:01.136Z,99583.53
2023-04-25T10:59:33.055Z,99584.61
2023-04-25T11:02:15.173Z,99578.71
2023-04-25T11:04:48.246Z,99570.01
2023-04-25T11:07:31.603Z,99560.08
2023-04-25T11:10:05.988Z,99565.70
2023-04-25T11:12:37.945Z,99566.55
2023-04-25T11:15:13.493Z,99571.38
2023-04-25T11:17:47.424Z,99569.35
2023-04-25T11:20:19.791Z,99569.19
2023-04-25T11:22:52.867Z,99568.98
2023-04-25T11:25:27.779Z,99569.58
2023-04-25T11:28:02.574Z,99569.17
2023-04-25T11:30:34.437Z,99567.02
2023-04-25T11:33:06.522Z,99569.70
2023-04-25T11:35:38.464Z,99574.35
2023-04-25T11:38:11.058Z,99577.88
2023-04-25T11:40:43.915Z,99580.11
2023-04-25T11:43:16.346Z,99584.14
2023-04-25T11:45:52.801Z,99591.91
2023-04-25T11:48:26.276Z,99588.20
2023-04-25T11:50:59.007Z,99574.84
2023-04-25T11:53:30.854Z,99576.70
2023-04-25T11:56:03.319Z,99586.20
2023-04-25T11:58:55.239Z,99588.55
2023-04-25T12:01:35.174Z,99586.09
2023-04-25T12:04:19.609Z,99589.66
2023-04-25T12:06:53.397Z,99587.89
2023-04-25T12:09:34.032Z,99596.69
2023-04-25T12:12:06.697Z,99601.77
2023-04-25T12:14:39.402Z,99596.40
2023-04-25T12:17:12.862Z,99603.09
2023-04-25T12:19:46.120Z,99598.21
2023-04-25T12:22:26.308Z,99596.66
2023-04-25T12:24:59.467Z,99604.38
2023-04-25T12:27:33.027Z,99595.84
2023-04-25T12:30:06.298Z,99601.89
2023-04-25T12:32:38.798Z,99601.31
2023-04-25T12:35:11.899Z,99601.85
2023-04-25T12:37:43.852Z,99609.26
2023-04-25T12:40:16.134Z,99618.10
2023-04-25T12:42:48.152Z,99610.38
2023-04-25T12:45:20.012Z,99614.41
2023-04-25T12:47:52.407Z,99617.02
2023-04-25T12:50:24.489Z,99612.93
2023-04-25T12:52:56.472Z,99611.53
2023-04-25T12:55:28.808Z,99616.35
2023-04-25T12:58:00.605Z,99607.87
2023-04-25T13:00:32.957Z,99610.14
2023-04-25T13:03:05.690Z,99606.66
2023-04-25T13:05:37.781Z,99598.80
2023-04-25T13:08:09.782Z,99598.31
2023-04-25T13:10:41.851Z,99603.14
2023-04-25T13:13:13.630Z,99605.47
2023-04-25T13:15:45.563Z,99608.86
2023-04-25T13:18:17.906Z,99634.39
2023-04-25T13:20:50.022Z,99629.73
2023-04-25T13:23:22.637Z,99627.44
2023-04-25T13:25:53.136Z,99626.27
2023-04-25T13:28:25.075Z,99621.65
2023-04-25T13:30:57.103Z,99619.90
2023-04-25T13:33:29.038Z,99625.67
2023-04-25T13:36:02.581Z,99627.25
2023-04-25T13:38:34.460Z,99627.17
2023-04-25T13:41:08.308Z,99631.48
2023-04-25T13:43:40.928Z,99632.50
2023-04-25T13:46:30.127Z,99632.91
2023-04-25T13:49:12.698Z,99635.50
2023-04-25T13:51:45.989Z,99638.69
2023-04-25T13:54:17.997Z,99640.05
2023-04-25T13:56:51.521Z,99639.13
2023-04-25T13:59:23.968Z,99637.93
2023-04-25T14:01:56.413Z,99642.13
2023-04-25T14:04:28.667Z,99644.13
2023-04-25T14:07:03.367Z,99644.50
2023-04-25T14:09:35.397Z,99640.87
2023-04-25T14:12:08.064Z,99640.23
2023-04-25T14:14:40.103Z,99633.64
2023-04-25T14:17:13.265Z,99644.56
2023-04-25T14:19:49.420Z,99652.98
2023-04-25T14:22:23.162Z,99661.66
2023-04-25T14:24:59.175Z,99661.11
2023-04-25T14:27:31.306Z,99660.08
2023-04-25T14:30:05.639Z,99661.04
2023-04-25T14:32:38.296Z,99656.64
2023-04-25T14:35:12.378Z,99662.81
2023-04-25T14:37:46.318Z,99658.98
2023-04-25T14:40:19.410Z,99664.89
2023-04-25T14:42:53.132Z,99667.59
2023-04-25T14:45:26.274Z,99669.77
2023-04-25T14:47:57.449Z,99673.91
2023-04-25T14:50:32.285Z,99672.08
2023-04-25T14:53:04.459Z,99677.61
2023-04-25T14:55:36.506Z,99676.55
2023-04-25T14:58:11.776Z,99678.88
2023-04-25T15:00:50.313Z,99679.82
2023-04-25T15:03:24.925Z,99677.92
2023-04-25T15:05:59.817Z,99676.83
2023-04-25T15:08:34.302Z,99674.48
2023-04-25T15:11:08.977Z,99679.86
2023-04-25T15:13:42.315Z,99679.30
2023-04-25T15:16:16.855Z,99684.25
2023-04-25T15:18:51.250Z,99678.20
2023-04-25T15:21:27.754Z,99686.37
2023-04-25T15:24:01.274Z,99675.77
2023-04-25T15:26:34.188Z,99692.92
2023-04-25T15:29:07.623Z,99684.19
2023-04-25T15:31:39.780Z,99698.64
2023-04-25T15:34:11.902Z,99697.48
2023-04-25T15:36:44.131Z,99699.88
2023-04-25T15:39:16.674Z,99701.35
2023-04-25T15:41:49.538Z,99701.30
2023-04-25T15:44:22.089Z,99699.88
2023-04-25T15:46:55.255Z,99702.35
2023-04-25T15:49:29.204Z,99701.83
2023-04-25T15:52:01.421Z,99704.23
2023-04-25T15:54:34.134Z,99705.42
2023-04-25T15:57:04.568Z,99702.77
2023-04-25T15:59:36.485Z,99709.16
2023-04-25T16:02:09.003Z,99711.80
2023-04-25T16:04:41.536Z,99712.98
2023-04-25T16:07:14.565Z,99710.67
2023-04-25T16:09:46.953Z,99709.01
2023-04-25T16:12:19.042Z,99713.06
2023-04-25T16:14:51.571Z,99714.40
2023-04-25T16:17:26.554Z,99719.53
2023-04-25T16:19:59.389Z,99720.73
2023-04-25T16:22:31.857Z,99721.80
2023-04-25T16:25:03.894Z,99722.83
2023-04-25T16:27:37.468Z,99728.84
2023-04-25T16:30:14.113Z,99729.41
2023-04-25T16:32:46.316Z,99733.08
2023-04-25T16:35:18.292Z,99739.33
2023-04-25T16:37:50.317Z,99740.84
2023-04-25T16:40:24.077Z,99731.06
2023-04-25T16:42:57.068Z,99730.29
2023-04-25T16:45:28.163Z,99739.69
2023-04-25T16:48:01.576Z,99738.05
2023-04-25T16:50:34.290Z,99744.41
2023-04-25T16:53:06.337Z,99745.97
2023-04-25T16:55:38.413Z,99745.98
2023-04-25T16:58:12.417Z,99751.52
2023-04-25T17:00:44.653Z,99757.94
2023-04-25T17:03:16.907Z,99759.59
2023-04-25T17:05:57.090Z,99760.66
2023-04-25T17:08:30.158Z,99767.42
2023-04-25T17:11:04.496Z,99769.50
2023-04-25T17:13:37.018Z,99779.33
2023-04-25T17:16:11.225Z,99779.56
2023-04-25T17:18:44.051Z,99783.80
2023-04-25T17:21:18.300Z,99785.52
2023-04-25T17:23:50.413Z,99789.97
2023-04-25T17:26:22.598Z,99792.06
2023-04-25T17:28:55.369Z,99791.77
2023-04-25T17:31:28.578Z,99794.00
2023-04-25T17:34:00.730Z,99792.55
2023-04-25T17:36:32.790Z,99796.71
2023-04-25T17:39:08.333Z,99797.30
2023-04-25T17:41:41.493Z,99802.67
2023-04-25T17:44:13.553Z,99806.58
2023-04-25T17:46:45.769Z,99805.89
2023-04-25T17:49:18.065Z,99805.24
2023-04-25T17:51:50.101Z,99810.18
2023-04-25T17:54:22.896Z,99808.88
2023-04-25T17:56:55.624Z,99808.45
2023-04-25T17:59:28.102Z,99813.49
2023-04-25T18:02:00.941Z,99816.36
2023-04-25T18:04:38.408Z,99817.70
2023-04-25T18:07:11.118Z,99816.27
2023-04-25T18:09:43.172Z,99820.30
2023-04-25T18:12:16.346Z,99817.16
2023-04-25T18:14:48.193Z,99817.65
2023-04-25T18:17:25.693Z,99823.73
2023-04-25T18:19:57.701Z,99826.89
2023-04-25T18:22:30.056Z,99832.81
2023-04-25T18:25:04.571Z,99836.98
2023-04-25T18:27:41.223Z,99835.30
2023-04-25T18:30:14.700Z,99839.48
2023-04-25T18:32:47.316Z,99840.70
2023-04-25T18:35:19.438Z,99847.93
2023-04-25T18:37:51.387Z,99844.76
2023-04-25T18:40:23.334Z,99851.04
2023-04-25T18:42:56.050Z,99853.70
2023-04-25T18:45:28.613Z,99860.63
2023-04-25T18:48:02.506Z,99861.10
2023-04-25T18:50:35.693Z,99865.34
2023-04-25T18:53:08.116Z,99868.60
2023-04-25T18:55:41.931Z,99869.53
2023-04-25T18:58:14.957Z,99875.07
2023-04-25T19:00:49.185Z,99871.65
2023-04-25T19:03:23.095Z,99876.00
2023-04-25T19:05:56.340Z,99880.70
2023-04-25T19:08:28.664Z,99884.40
2023-04-25T19:11:07.668Z,99886.89
2023-04-25T19:13:46.336Z,99887.95
2023-04-25T19:16:19.658Z,99890.70
2023-04-25T19:18:52.816Z,99890.31
2023-04-25T19:21:27.484Z,99893.79
2023-04-25T19:24:01.539Z,99898.30
2023-04-25T19:26:33.774Z,99902.61
2023-04-25T19:29:14.587Z,99903.48
2023-04-25T19:31:47.518Z,99910.03
2023-04-25T19:34:18.395Z,99910.79
2023-04-25T19:36:54.381Z,99910.56
2023-04-25T19:39:27.245Z,99913.32
2023-04-25T19:42:03.397Z,99910.30
2023-04-25T19:44:39.929Z,99910.36
2023-04-25T19:47:14.864Z,99912.36
2023-04-25T19:49:48.164Z,99911.58
2023-04-25T19:52:20.785Z,99910.70
2023-04-25T19:54:51.662Z,99915.57
2023-04-25T19:57:24.457Z,99915.75
2023-04-25T19:59:56.629Z,99916.73
2023-04-25T20:02:29.117Z,99916.21
2023-04-25T20:05:05.668Z,99917.48
2023-04-25T20:07:38.569Z,99920.68
2023-04-25T20:10:16.616Z,99920.95
2023-04-25T20:12:49.413Z,99921.95
2023-04-25T20:15:21.929Z,99918.75
2023-04-25T20:17:55.792Z,99917.22
2023-04-25T20:20:30.991Z,99915.79
2023-04-25T20:23:03.624Z,99922.77
2023-04-25T20:25:35.786Z,99922.77
2023-04-25T20:28:07.972Z,99921.27
2023-04-25T20:30:40.415Z,99923.61
2023-04-25T20:33:13.147Z,99921.63
2023-04-25T20:35:46.293Z,99927.70
2023-04-25T20:38:18.678Z,99930.29
2023-04-25T20:40:52.132Z,99928.11
2023-04-25T20:43:25.864Z,99930.00
2023-04-25T20:45:58.562Z,99928.70
2023-04-25T20:48:30.838Z,99926.82
2023-04-25T20:51:04.058Z,99925.42
2023-04-25T20:53:36.119Z,99921.30
2023-04-25T20:56:10.894Z,99932.73
2023-04-25T20:58:43.003Z,99929.17
2023-04-25T21:01:15.005Z,99933.82
2023-04-25T21:03:49.381Z,99936.14
2023-04-25T21:06:21.972Z,99937.70
2023-04-25T21:08:54.893Z,99936.61
2023-04-25T21:11:27.211Z,99938.30
2023-04-25T21:13:58.198Z,99938.95
2023-04-25T21:16:34.949Z,99937.45
2023-04-25T21:19:07.249Z,99939.61
2023-04-25T21:21:39.792Z,99943.40
2023-04-25T21:24:14.922Z,99945.05
2023-04-25T21:26:46.978Z,99944.98
2023-04-25T21:29:19.457Z,99949.77
2023-04-25T21:31:50.997Z,99947.85
2023-04-25T21:34:23.206Z,99947.05
2023-04-25T21:36:56.168Z,99950.76
2023-04-25T21:39:28.752Z,99951.80
2023-04-25T21:42:01.912Z,99949.43
2023-04-25T21:44:34.319Z,99957.99
2023-04-25T21:47:06.632Z,99958.64
2023-04-25T21:49:41.787Z,99955.34
2023-04-25T21:52:14.100Z,99956.84
2023-04-25T21:54:46.096Z,99961.80
2023-04-25T21:57:18.111Z,99960.16
2023-04-25T21:59:50.575Z,99965.52
2023-04-25T22:02:23.405Z,99965.15
2023-04-25T22:04:55.723Z,99967.83
2023-04-25T22:07:27.830Z,99961.77
2023-04-25T22:10:00.464Z,99962.17
2023-04-25T22:12:33.059Z,99959.67
2023-04-25T22:15:06.117Z,99960.48
2023-04-25T22:17:38.855Z,99968.30
2023-04-25T22:20:13.900Z,99971.17
2023-04-25T22:22:50.077Z,99969.60
2023-04-25T22:25:23.992Z,99969.38
2023-04-25T22:27:57.363Z,99967.45
2023-04-25T22:30:32.138Z,99971.25
2023-04-25T22:33:04.519Z,99979.69
2023-04-25T22:35:36.571Z,99978.86
2023-04-25T22:38:08.658Z,99977.05
2023-04-25T22:40:40.686Z,99978.72
2023-04-25T22:43:12.709Z,99976.38
2023-04-25T22:45:44.910Z,99977.14
2023-04-25T22:48:17.246Z,99976.94
2023-04-25T22:50:49.888Z,99979.27
2023-04-25T22:53:21.908Z,99982.03
2023-04-25T22:55:59.357Z,99977.35
2023-04-25T22:58:31.936Z,99980.58
2023-04-25T23:01:06.898Z,99979.20
2023-04-25T23:03:40.799Z,99976.77
2023-04-25T23:06:14.457Z,99972.88
2023-04-25T23:08:46.848Z,99973.55
2023-04-25T23:11:20.421Z,99975.57
2023-04-25T23:13:52.799Z,99975.98
2023-04-25T23:16:25.030Z,99974.52
2023-04-25T23:18:57.421Z,99977.16
2023-04-25T23:21:30.213Z,99974.91
2023-04-25T23:24:03.747Z,99983.31
2023-04-25T23:26:35.712Z,99981.03
2023-04-25T23:29:08.560Z,99984.30
2023-04-25T23:31:42.326Z,99976.34
2023-04-25T23:34:14.354Z,99987.19
2023-04-25T23:36:46.311Z,99988.13
2023-04-25T23:39:18.929Z,99988.78
2023-04-25T23:41:51.180Z,99990.16
2023-04-25T23:44:22.161Z,99989.20
2023-04-25T23:46:54.115Z,99991.95
2023-04-25T23:49:26.266Z,99992.54
2023-04-25T23:51:59.207Z,99993.63
2023-04-25T23:54:31.710Z,99992.75
2023-04-25T23:57:04.845Z,99995.57
2023-04-25T23:59:36.702Z,99997.60
